Time;durP1;ratioP1;P1;durP2;ratioP2;P2;SDS_P1;SDS_P2;PMS_P1;PMS_P2;Temp;Humidity;BMP_temperature;BMP_pressure;BME280_temperature;BME280_humidity;BME280_pressure;Samples;Min_cycle;Max_cycle;Signal;HPM_P1;HPM_P2
2023/05/17 00:02:05;;;;;;;11.20;4.28;;;;;;;5.14;90.05;102192.56;4845559;29;20301;-91
2023/05/17 00:04:32;;;;;;;7.97;4.30;;;;;;;5.12;90.37;102191.84;4842364;29;20531;-91
2023/05/17 00:06:57;;;;;;;10.57;5.10;;;;;;;5.09;90.67;102194.78;4842064;29;20412;-91
2023/05/17 00:09:22;;;;;;;15.60;5.50;;;;;;;5.04;90.15;102186.31;4846836;29;20056;-92
2023/05/17 00:11:48;;;;;;;10.07;5.00;;;;;;;5.03;90.55;102184.63;4836749;29;20038;-92
2023/05/17 00:14:13;;;;;;;;;;;;;;;4.97;90.06;102189.47;4837477;29;20121;-91
2023/05/17 00:16:38;;;;;;;17.37;5.30;;;;;;;4.99;90.23;102179.53;4860681;29;19945;-91
2023/05/17 00:19:04;;;;;;;;;;;;;;;5.04;90.16;102181.81;4862804;29;20115;-89
2023/05/17 00:21:30;;;;;;;8.90;4.67;;;;;;;5.05;90.99;102180.00;4862166;29;19979;-83
2023/05/17 00:23:55;;;;;;;8.23;4.85;;;;;;;5.03;91.04;102184.63;4838348;29;20293;-84
2023/05/17 00:26:21;;;;;;;7.32;3.47;;;;;;;5.01;90.69;102185.59;4836643;29;20042;-84
2023/05/17 00:28:46;;;;;;;13.15;4.57;;;;;;;5.00;90.84;102183.88;4855874;29;20034;-83
2023/05/17 00:31:11;;;;;;;;;;;;;;;4.98;90.46;102183.16;4852923;29;20101;-84
2023/05/17 00:33:37;;;;;;;9.57;4.90;;;;;;;4.96;91.09;102182.44;4842849;29;20373;-83
2023/05/17 00:36:02;;;;;;;;;;;;;;;4.97;90.96;102175.31;4839332;29;20391;-83
2023/05/17 00:38:29;;;;;;;6.25;3.88;;;;;;;4.94;90.60;102176.38;4840153;29;19947;-83
2023/05/17 00:40:58;;;;;;;11.55;4.90;;;;;;;4.93;90.46;102174.72;4840262;29;20054;-84
2023/05/17 00:43:24;;;;;;;11.07;4.20;;;;;;;4.92;90.97;102175.69;4836510;29;20039;-83
2023/05/17 00:45:50;;;;;;;8.98;4.50;;;;;;;4.86;90.83;102179.69;4839047;29;20114;-84
2023/05/17 00:48:16;;;;;;;10.60;5.03;;;;;;;4.86;91.40;102178.84;4832333;29;20042;-84
2023/05/17 00:50:41;;;;;;;12.10;4.10;;;;;;;4.83;91.30;102179.09;4827323;29;20040;-84
2023/05/17 00:53:06;;;;;;;10.20;3.95;;;;;;;4.79;91.14;102182.97;4841967;29;20049;-83
2023/05/17 00:55:32;;;;;;;9.18;4.45;;;;;;;4.74;90.95;102187.88;4838121;29;20410;-83
2023/05/17 00:57:57;;;;;;;;;;;;;;;4.76;91.51;102184.09;4818363;29;20034;-83
2023/05/17 01:00:22;;;;;;;11.93;4.67;;;;;;;4.76;91.10;102181.44;4841770;29;19920;-83
2023/05/17 01:02:48;;;;;;;;;;;;;;;4.74;91.29;102183.38;4835852;29;20030;-84
2023/05/17 01:05:14;;;;;;;10.32;4.32;;;;;;;4.69;91.86;102175.75;4817249;29;19925;-84
2023/05/17 01:07:40;;;;;;;12.25;4.15;;;;;;;4.64;91.14;102185.94;4814886;29;20103;-84
2023/05/17 01:10:06;;;;;;;9.18;4.20;;;;;;;4.58;91.53;102166.91;4833084;29;20475;-84
2023/05/17 01:12:37;;;;;;;12.45;5.43;;;;;;;4.54;91.54;102177.00;4824539;29;20037;-84
2023/05/17 01:15:36;;;;;;;15.82;5.40;;;;;;;4.53;91.45;102185.97;4824627;29;20384;-84
2023/05/17 01:18:38;;;;;;;11.13;4.95;;;;;;;4.48;91.79;102186.34;4818563;29;20073;-84
2023/05/17 01:21:03;;;;;;;10.63;4.55;;;;;;;4.47;91.79;102189.13;4800454;29;20448;-84
2023/05/17 01:24:02;;;;;;;9.30;4.60;;;;;;;4.51;91.47;102193.25;4821069;29;20037;-84
2023/05/17 01:26:36;;;;;;;10.40;5.03;;;;;;;4.61;92.08;102196.84;4832502;29;20050;-84
2023/05/17 01:29:01;;;;;;;13.77;5.38;;;;;;;4.68;91.69;102178.53;4824506;29;20144;-84
2023/05/17 01:31:26;;;;;;;7.83;4.23;;;;;;;4.73;92.21;102175.50;4820320;29;20038;-84
2023/05/17 01:33:52;;;;;;;9.90;4.53;;;;;;;4.77;91.70;102164.44;4819680;29;20295;-84
2023/05/17 01:36:17;;;;;;;13.93;4.25;;;;;;;4.70;92.25;102161.44;4830222;29;20305;-84
2023/05/17 01:38:43;;;;;;;7.60;4.13;;;;;;;4.69;91.64;102173.09;4839738;29;20475;-85
2023/05/17 01:41:22;;;;;;;12.88;4.82;;;;;;;4.60;92.04;102178.31;4837112;29;20025;-85
2023/05/17 01:43:54;;;;;;;11.93;5.18;;;;;;;4.63;92.17;102172.75;4820672;29;20480;-84
2023/05/17 01:46:22;;;;;;;22.10;6.28;;;;;;;4.62;91.75;102177.22;4818667;29;20026;-84
2023/05/17 01:48:59;;;;;;;15.45;5.00;;;;;;;4.73;92.34;102180.84;4833941;29;20112;-83
2023/05/17 01:51:26;;;;;;;14.10;5.25;;;;;;;4.75;92.51;102179.72;4804879;29;20523;-84
2023/05/17 01:53:55;;;;;;;19.98;6.22;;;;;;;4.90;92.41;102190.97;4808986;29;20033;-84
2023/05/17 01:56:26;;;;;;;14.15;5.38;;;;;;;4.94;92.91;102187.06;4821189;29;20034;-85
2023/05/17 01:58:51;;;;;;;21.25;6.07;;;;;;;4.96;92.77;102190.44;4824893;29;20030;-84
2023/05/17 02:01:17;;;;;;;14.30;6.35;;;;;;;5.01;92.67;102188.25;4822953;29;20103;-84
2023/05/17 02:03:43;;;;;;;19.30;5.32;;;;;;;5.05;92.29;102185.34;4817768;29;20076;-84
2023/05/17 02:06:08;;;;;;;12.65;5.57;;;;;;;5.12;92.64;102189.16;4821287;29;20030;-84
2023/05/17 02:08:33;;;;;;;20.38;5.32;;;;;;;5.16;92.58;102186.16;4834493;29;20715;-85
2023/05/17 02:10:59;;;;;;;11.60;5.50;;;;;;;5.21;92.75;102176.88;4834992;29;20034;-85
2023/05/17 02:13:24;;;;;;;13.57;5.10;;;;;;;5.21;93.08;102176.88;4839970;29;20033;-85
2023/05/17 02:15:50;;;;;;;14.75;4.97;;;;;;;5.21;92.79;102182.22;4837723;29;20399;-85
2023/05/17 02:18:15;;;;;;;;;;;;;;;5.25;92.81;102189.00;4847780;29;20081;-89
2023/05/17 02:20:40;;;;;;;13.75;5.22;;;;;;;5.29;93.11;102190.44;4851559;29;19929;-89
2023/05/17 02:23:06;;;;;;;14.57;5.32;;;;;;;5.31;92.62;102186.66;4848679;29;20112;-89
2023/05/17 02:25:31;;;;;;;19.00;5.30;;;;;;;5.39;92.86;102185.19;4840265;29;20093;-92
2023/05/17 02:27:56;;;;;;;;;;;;;;;5.47;92.69;102196.06;4841600;29;20485;-92
2023/05/17 02:30:22;;;;;;;18.87;6.03;;;;;;;5.54;92.68;102194.56;4848507;29;19929;-93
2023/05/17 02:32:47;;;;;;;;;;;;;;;5.64;93.11;102193.78;4845439;29;20085;-95
2023/05/17 02:35:12;;;;;;;15.33;5.67;;;;;;;5.73;93.29;102209.88;4845031;29;20004;-90
2023/05/17 02:37:38;;;;;;;;;;;;;;;5.87;93.08;102211.34;4842239;29;20093;-93
2023/05/17 02:40:08;;;;;;;17.13;6.00;;;;;;;5.96;93.12;102207.03;4839710;29;19928;-93
2023/05/17 02:42:34;;;;;;;12.55;5.53;;;;;;;6.07;93.14;102214.16;4840308;29;20467;-90
2023/05/17 02:44:59;;;;;;;13.88;5.00;;;;;;;6.13;92.47;102215.44;4846493;29;20133;-91
2023/05/17 02:47:25;;;;;;;;;;;;;;;6.21;92.40;102220.97;4851240;29;20130;-90
2023/05/17 02:49:50;;;;;;;15.90;5.03;;;;;;;6.29;92.14;102226.50;4857128;29;20444;-91
2023/05/17 02:52:15;;;;;;;13.52;5.07;;;;;;;6.33;91.93;102232.44;4828216;29;20294;-91
2023/05/17 02:54:44;;;;;;;14.70;4.95;;;;;;;6.36;92.09;102238.34;4833255;29;20106;-90
2023/05/17 02:57:11;;;;;;;14.18;4.97;;;;;;;6.41;92.02;102239.78;4837749;29;20054;-90
2023/05/17 02:59:36;;;;;;;11.98;4.57;;;;;;;6.46;91.78;102246.41;4838979;29;20042;-90
2023/05/17 03:02:01;;;;;;;;;;;;;;;6.45;91.54;102246.53;4839522;29;20117;-90
2023/05/17 03:04:30;;;;;;;12.87;4.60;;;;;;;6.40;91.45;102246.94;4830857;29;20024;-91
2023/05/17 03:06:56;;;;;;;13.57;4.88;;;;;;;6.40;91.39;102252.28;4840836;29;20041;-91
2023/05/17 03:09:22;;;;;;;13.43;4.80;;;;;;;6.40;91.16;102244.28;4836303;29;20034;-91
2023/05/17 03:11:47;;;;;;;;;;;;;;;6.30;91.36;102244.22;4835137;29;20065;-90
2023/05/17 03:14:12;;;;;;;12.95;4.45;;;;;;;6.26;91.54;102242.81;4834156;29;19993;-89
2023/05/17 03:16:38;;;;;;;;;;;;;;;6.15;91.06;102246.44;4843494;29;20038;-90
2023/05/17 03:19:03;;;;;;;13.43;5.00;;;;;;;6.03;90.92;102242.13;4840577;29;19928;-89
2023/05/17 03:21:29;;;;;;;;;;;;;;;5.92;91.52;102249.22;4836502;29;20040;-90
2023/05/17 03:23:54;;;;;;;11.57;4.67;;;;;;;5.90;91.53;102256.53;4841045;29;19959;-90
2023/05/17 03:26:19;;;;;;;;;;;;;;;5.89;91.65;102262.84;4838656;29;20039;-90
2023/05/17 03:28:45;;;;;;;14.45;6.22;;;;;;;5.86;91.44;102263.09;4839725;29;19925;-89
2023/05/17 03:31:10;;;;;;;;;;;;;;;5.84;92.12;102265.06;4839481;29;20453;-89
2023/05/17 03:33:35;;;;;;;14.93;5.07;;;;;;;5.78;92.32;102268.28;4843553;29;19920;-89
2023/05/17 03:36:01;;;;;;;;;;;;;;;5.69;92.42;102271.69;4839771;29;20533;-90
2023/05/17 03:38:26;;;;;;;15.17;4.83;;;;;;;5.57;92.14;102277.13;4834911;29;19917;-89
2023/05/17 03:40:52;;;;;;;;;;;;;;;5.48;92.31;102272.53;4854832;29;20088;-90
2023/05/17 03:43:20;;;;;;;12.50;4.47;;;;;;;5.43;92.14;102282.75;4826358;29;19927;-90
2023/05/17 03:45:46;;;;;;;12.35;4.97;;;;;;;5.38;91.97;102284.97;4856667;29;20042;-90
2023/05/17 03:48:11;;;;;;;;;;;;;;;5.27;92.33;102284.03;4851457;29;20050;-90
2023/05/17 03:50:39;;;;;;;10.37;4.37;;;;;;;5.22;92.23;102286.22;4858160;29;19976;-90
2023/05/17 03:53:13;;;;;;;14.02;4.68;;;;;;;5.12;91.87;102286.13;4866117;24;20629;-89
2023/05/17 03:55:38;;;;;;;16.13;5.35;;;;;;;5.09;92.34;102282.88;4825002;29;20113;-90
2023/05/17 03:58:04;;;;;;;;;;;;;;;5.13;92.00;102294.97;4822638;29;20048;-90
2023/05/17 04:00:29;;;;;;;15.35;4.40;;;;;;;5.16;92.06;102292.06;4815688;29;19921;-90
2023/05/17 04:02:55;;;;;;;14.97;5.53;;;;;;;5.13;92.77;102290.50;4815771;29;20699;-89
2023/05/17 04:05:20;;;;;;;12.95;4.50;;;;;;;5.13;92.37;102286.97;4818849;29;20300;-88
2023/05/17 04:07:45;;;;;;;12.65;4.90;;;;;;;5.12;92.61;102290.59;4820429;29;20432;-88
2023/05/17 04:10:17;;;;;;;15.57;5.75;;;;;;;5.19;92.86;102291.81;4814214;29;20030;-89
2023/05/17 04:12:42;;;;;;;12.00;4.72;;;;;;;5.26;92.62;102290.34;4825875;29;20041;-81
2023/05/17 04:15:07;;;;;;;;;;;;;;;5.29;92.69;102297.25;4821209;29;20027;-87
2023/05/17 04:17:33;;;;;;;17.13;5.22;;;;;;;5.30;92.57;102296.28;4822155;29;19978;-86
2023/05/17 04:19:58;;;;;;;11.87;5.23;;;;;;;5.34;93.16;102295.06;4820393;29;20052;-82
2023/05/17 04:22:27;;;;;;;17.10;5.78;;;;;;;5.35;92.72;102307.44;4827469;29;20296;-94
2023/05/17 04:24:52;;;;;;;13.85;4.70;;;;;;;5.39;93.08;102302.69;4825246;29;20034;-84
2023/05/17 04:27:18;;;;;;;;;;;;;;;5.41;93.19;102311.41;4818848;29;20373;-86
2023/05/17 04:29:43;;;;;;;15.13;5.40;;;;;;;5.47;92.69;102308.25;4819700;29;19921;-86
2023/05/17 04:32:08;;;;;;;17.40;5.60;;;;;;;5.52;93.10;102313.19;4821829;29;20306;-85
2023/05/17 04:34:34;;;;;;;;;;;;;;;5.55;92.73;102313.78;4824459;29;20070;-85
2023/05/17 04:36:59;;;;;;;11.30;4.40;;;;;;;5.63;93.04;102323.84;4826117;29;20285;-85
2023/05/17 04:39:24;;;;;;;;;;;;;;;5.70;93.09;102326.84;4823535;29;20053;-85
2023/05/17 04:41:50;;;;;;;16.52;4.80;;;;;;;5.80;92.70;102332.25;4823609;29;20394;-85
2023/05/17 04:44:16;;;;;;;17.08;5.93;;;;;;;5.88;92.80;102335.16;4818370;29;20130;-84
2023/05/17 04:46:44;;;;;;;;;;;;;;;5.99;92.72;102331.56;4796795;29;20077;-85
2023/05/17 04:49:10;;;;;;;15.95;4.93;;;;;;;6.07;92.49;102340.66;4821427;29;19924;-85
2023/05/17 04:51:35;;;;;;;;;;;;;;;6.13;92.57;102344.66;4818013;29;20451;-85
2023/05/17 04:54:00;;;;;;;10.13;4.50;;;;;;;6.27;91.80;102342.63;4822570;29;20373;-84
2023/05/17 04:56:27;;;;;;;11.65;4.28;;;;;;;6.55;91.96;102350.91;4823082;29;20315;-84
2023/05/17 04:58:52;;;;;;;9.85;3.90;;;;;;;6.84;91.57;102353.72;4818755;29;20039;-84
2023/05/17 05:01:17;;;;;;;;;;;;;;;7.11;91.07;102363.81;4813242;29;20038;-84
2023/05/17 05:03:43;;;;;;;13.33;4.23;;;;;;;7.59;89.34;102362.22;4823768;29;19963;-84
2023/05/17 05:06:08;;;;;;;;;;;;;;;8.45;87.93;102359.75;4813564;29;20038;-84
2023/05/17 05:08:33;;;;;;;9.20;3.43;;;;;;;9.04;84.58;102367.59;4822041;29;19929;-84
2023/05/17 05:10:59;;;;;;;;;;;;;;;8.89;78.87;102365.41;4813250;29;20045;-84
2023/05/17 05:13:24;;;;;;;11.80;3.23;;;;;;;8.90;79.24;102377.00;4811374;29;19921;-84
2023/05/17 05:15:54;;;;;;;;;;;;;;;8.89;78.77;102378.84;4820063;29;20704;-84
2023/05/17 05:18:22;;;;;;;13.68;3.50;;;;;;;8.85;78.04;102390.03;4815819;29;20013;-84
2023/05/17 05:20:47;;;;;;;9.65;3.20;;;;;;;8.79;77.99;102383.41;4818478;29;20035;-85
2023/05/17 05:23:13;;;;;;;15.57;3.38;;;;;;;8.93;77.41;102392.81;4823342;29;20516;-84
2023/05/17 05:25:38;;;;;;;;;;;;;;;9.06;76.65;102390.66;4820332;29;20081;-84
2023/05/17 05:28:04;;;;;;;13.83;3.83;;;;;;;9.22;75.43;102383.78;4817883;29;20025;-84
2023/05/17 05:30:29;;;;;;;;;;;;;;;9.12;74.23;102389.19;4818546;29;20303;-85
2023/05/17 05:32:54;;;;;;;14.88;3.65;;;;;;;9.04;75.23;102392.63;4813431;29;20350;-85
2023/05/17 05:35:25;;;;;;;9.25;3.08;;;;;;;9.03;75.04;102395.44;4818511;29;20490;-85
2023/05/17 05:37:50;;;;;;;19.55;3.55;;;;;;;9.21;75.18;102398.19;4819171;29;20042;-85
2023/05/17 05:40:18;;;;;;;15.77;3.38;;;;;;;9.25;74.33;102395.06;4822190;29;20034;-85
2023/05/17 05:42:43;;;;;;;17.83;3.28;;;;;;;9.19;74.50;102411.78;4807353;29;20484;-85
2023/05/17 05:45:09;;;;;;;17.13;3.67;;;;;;;9.21;74.24;102415.16;4815357;29;20126;-84
2023/05/17 05:47:35;;;;;;;12.35;2.70;;;;;;;9.38;74.52;102416.22;4811993;29;20399;-84
2023/05/17 05:50:00;;;;;;;15.60;3.10;;;;;;;9.70;74.09;102414.88;4820338;29;20036;-85
2023/05/17 05:52:25;;;;;;;14.05;3.05;;;;;;;10.22;72.78;102418.69;4822813;29;20030;-84
2023/05/17 05:54:51;;;;;;;12.85;3.22;;;;;;;10.52;69.98;102418.44;4820415;29;20046;-85
2023/05/17 05:57:16;;;;;;;16.52;3.38;;;;;;;10.57;70.03;102421.50;4820147;29;20034;-84
2023/05/17 05:59:42;;;;;;;11.75;2.95;;;;;;;10.68;69.82;102432.00;4810672;29;20034;-84
2023/05/17 06:02:07;;;;;;;13.57;3.00;;;;;;;11.47;65.85;102421.09;4822772;29;20476;-85
2023/05/17 06:07:24;;;;;;;15.90;3.08;;;;;;;13.85;59.83;102446.19;4823309;29;20506;-84
2023/05/17 06:09:50;;;;;;;12.63;3.00;;;;;;;14.92;55.72;102439.84;4822520;29;20042;-85
2023/05/17 06:12:16;;;;;;;15.20;3.08;;;;;;;15.31;55.93;102441.41;4822271;29;20042;-85
2023/05/17 06:14:41;;;;;;;16.90;3.25;;;;;;;16.02;51.51;102442.63;4823090;29;20375;-85
2023/05/17 06:17:07;;;;;;;11.13;2.72;;;;;;;16.57;51.27;102446.63;4822609;29;20022;-85
2023/05/17 06:19:32;;;;;;;12.43;2.95;;;;;;;17.05;51.65;102452.19;4832497;29;20039;-85
2023/05/17 06:21:57;;;;;;;8.75;2.55;;;;;;;17.45;46.59;102454.25;4830321;24;20066;-85
2023/05/17 06:24:23;;;;;;;10.55;2.53;;;;;;;17.77;47.83;102461.91;4838807;29;20034;-85
2023/05/17 06:26:48;;;;;;;14.80;3.00;;;;;;;17.58;46.18;102464.34;4831086;29;20034;-85
2023/05/17 06:29:14;;;;;;;9.88;2.90;;;;;;;17.89;44.48;102452.06;4833079;29;20471;-85
2023/05/17 06:31:39;;;;;;;10.13;2.47;;;;;;;18.07;44.17;102467.00;4832103;29;20037;-85
2023/05/17 06:34:04;;;;;;;11.50;2.88;;;;;;;18.59;42.66;102465.34;4840097;29;20081;-85
2023/05/17 06:36:30;;;;;;;14.88;2.78;;;;;;;19.05;42.50;102473.69;4839961;29;20074;-85
2023/05/17 06:38:55;;;;;;;8.55;2.58;;;;;;;18.57;41.13;102472.88;4839335;29;20037;-85
2023/05/17 06:41:21;;;;;;;8.63;2.20;;;;;;;19.15;41.95;102478.69;4840305;29;20397;-85
2023/05/17 06:43:46;;;;;;;9.75;2.72;;;;;;;18.92;40.47;102479.97;4840545;29;20037;-82
2023/05/17 06:46:11;;;;;;;8.85;2.40;;;;;;;19.03;40.34;102487.53;4839548;29;20030;-85
2023/05/17 06:48:37;;;;;;;8.50;2.67;;;;;;;19.35;39.46;102481.34;4830933;29;20037;-84
2023/05/17 06:51:02;;;;;;;7.85;2.30;;;;;;;19.90;38.62;102483.63;4829002;29;20394;-85
2023/05/17 06:53:27;;;;;;;10.75;2.95;;;;;;;19.30;37.93;102486.63;4839756;29;20029;-85
2023/05/17 06:55:53;;;;;;;9.35;2.58;;;;;;;19.77;39.39;102491.88;4827692;29;20506;-84
2023/05/17 06:58:18;;;;;;;11.43;2.22;;;;;;;19.41;38.09;102475.03;4847205;29;20079;-85
2023/05/17 07:00:44;;;;;;;11.05;2.50;;;;;;;19.85;37.84;102480.69;4839395;29;20034;-84
2023/05/17 07:03:09;;;;;;;9.05;2.55;;;;;;;20.39;37.53;102483.91;4850838;29;20054;-85
2023/05/17 07:05:35;;;;;;;9.60;2.33;;;;;;;20.66;36.98;102489.13;4852165;29;20109;-84
2023/05/17 07:08:01;;;;;;;8.80;2.53;;;;;;;20.26;36.88;102484.00;4841031;29;20048;-84
2023/05/17 07:10:26;;;;;;;9.32;2.20;;;;;;;19.61;37.17;102490.47;4854836;29;20076;-84
2023/05/17 07:12:51;;;;;;;6.90;2.10;;;;;;;19.25;36.97;102492.72;4842698;29;20394;-84
2023/05/17 07:15:17;;;;;;;7.68;1.95;;;;;;;18.67;38.47;102493.44;4831994;29;20127;-84
2023/05/17 07:17:42;;;;;;;9.23;2.60;;;;;;;18.35;38.62;102495.97;4839130;29;20026;-84
2023/05/17 07:20:08;;;;;;;7.75;2.40;;;;;;;17.36;40.85;102493.59;4827266;29;20467;-84
2023/05/17 07:22:33;;;;;;;7.88;2.17;;;;;;;17.27;41.33;102493.75;4839140;29;20038;-84
2023/05/17 07:24:59;;;;;;;8.93;2.55;;;;;;;18.44;38.08;102498.25;4839924;29;20478;-84
2023/05/17 07:27:24;;;;;;;9.43;2.25;;;;;;;18.63;39.44;102493.00;4838059;29;20025;-84
2023/05/17 07:29:50;;;;;;;8.40;2.30;;;;;;;19.04;35.59;102502.03;4830003;29;20047;-84
2023/05/17 07:32:16;;;;;;;9.38;2.40;;;;;;;20.01;36.34;102505.84;4838049;29;20380;-84
2023/05/17 07:34:42;;;;;;;5.95;1.80;;;;;;;21.27;32.77;102507.72;4838321;29;20053;-84
2023/05/17 07:37:07;;;;;;;8.48;1.98;;;;;;;21.11;31.97;102500.94;4839682;29;20104;-83
2023/05/17 07:39:32;;;;;;;6.20;2.00;;;;;;;19.81;34.55;102512.25;4840123;29;20363;-84
2023/05/17 07:41:58;;;;;;;8.13;2.00;;;;;;;19.16;35.43;102508.50;4840136;29;20030;-84
2023/05/17 07:44:25;;;;;;;8.82;2.15;;;;;;;19.04;36.11;102516.50;4840775;29;20026;-83
2023/05/17 07:46:50;;;;;;;8.15;2.13;;;;;;;19.05;35.33;102531.84;4842481;29;20398;-84
2023/05/17 07:49:15;;;;;;;8.77;2.00;;;;;;;18.37;36.43;102532.88;4842573;29;20041;-83
2023/05/17 07:51:43;;;;;;;6.65;1.92;;;;;;;18.00;36.58;102527.78;4841146;29;20034;-83
2023/05/17 07:54:11;;;;;;;6.13;1.90;;;;;;;17.85;37.12;102529.78;4843264;29;20034;-83
2023/05/17 07:56:36;;;;;;;7.13;2.10;;;;;;;17.77;36.58;102527.28;4837453;29;20038;-82
2023/05/17 07:59:02;;;;;;;6.10;1.90;;;;;;;18.23;37.85;102529.28;4843581;29;20471;-83
2023/05/17 08:01:27;;;;;;;5.28;1.90;;;;;;;18.48;35.61;102529.53;4842654;29;20033;-83
2023/05/17 08:03:52;;;;;;;7.20;1.98;;;;;;;17.93;36.90;102536.94;4835523;29;20034;-83
2023/05/17 08:06:18;;;;;;;8.15;1.75;;;;;;;17.49;37.35;102536.34;4840318;29;20054;-83
2023/05/17 08:08:43;;;;;;;7.35;2.05;;;;;;;17.32;37.71;102536.69;4840959;29;20030;-83
2023/05/17 08:11:09;;;;;;;6.20;2.03;;;;;;;17.20;37.94;102533.72;4840202;29;20045;-82
2023/05/17 08:13:35;;;;;;;7.75;1.80;;;;;;;17.46;38.54;102539.50;4840693;29;20021;-82
2023/05/17 08:16:02;;;;;;;5.70;1.95;;;;;;;17.45;37.88;102543.28;4837192;29;20543;-82
2023/05/17 08:18:31;;;;;;;7.90;1.98;;;;;;;17.13;37.65;102549.97;4840693;29;20038;-82
2023/05/17 08:20:56;;;;;;;5.63;1.70;;;;;;;17.80;35.65;102538.59;4834851;29;20084;-82
2023/05/17 08:23:21;;;;;;;8.93;2.00;;;;;;;17.81;37.46;102540.28;4834903;29;20034;-82
2023/05/17 08:25:47;;;;;;;5.70;1.60;;;;;;;18.67;34.48;102548.84;4839429;29;20037;-82
2023/05/17 08:28:12;;;;;;;6.38;2.03;;;;;;;20.15;32.41;102543.81;4833718;29;20069;-82
2023/05/17 08:30:37;;;;;;;6.13;1.95;;;;;;;20.59;30.31;102549.38;4834675;29;20041;-82
2023/05/17 08:33:03;;;;;;;6.97;1.88;;;;;;;20.84;31.13;102543.09;4841651;29;20042;-83
2023/05/17 08:35:28;;;;;;;8.45;1.83;;;;;;;20.82;31.23;102547.13;4842914;29;20463;-82
2023/05/17 08:37:54;;;;;;;6.95;2.08;;;;;;;20.35;30.92;102540.09;4841197;29;20030;-83
2023/05/17 08:40:20;;;;;;;6.18;1.70;;;;;;;20.79;30.85;102548.41;4831057;29;20034;-83
2023/05/17 08:42:45;;;;;;;3.80;1.70;;;;;;;22.07;29.27;102546.94;4842653;29;20030;-83
2023/05/17 08:45:11;;;;;;;9.35;2.08;;;;;;;22.21;27.87;102553.06;4836501;29;20078;-83
2023/05/17 08:47:36;;;;;;;9.07;2.08;;;;;;;21.23;29.48;102553.88;4825621;29;20410;-83
2023/05/17 08:50:04;;;;;;;6.45;2.20;;;;;;;20.37;30.44;102557.13;4833317;29;20022;-82
2023/05/17 08:52:33;;;;;;;8.57;2.15;;;;;;;18.98;33.15;102557.47;4842185;29;20025;-82
2023/05/17 08:55:04;;;;;;;4.55;1.65;;;;;;;18.92;33.41;102559.13;4841854;29;20029;-84
2023/05/17 08:57:31;;;;;;;6.40;1.60;;;;;;;20.49;31.98;102559.13;4842445;29;20030;-83
2023/05/17 08:59:57;;;;;;;5.57;1.90;;;;;;;21.51;29.75;102561.56;4836419;29;20091;-82
2023/05/17 09:02:23;;;;;;;6.32;1.73;;;;;;;21.00;29.58;102566.31;4832158;29;20026;-84
2023/05/17 09:04:49;;;;;;;4.25;1.92;;;;;;;19.84;31.02;102572.75;4841806;29;20026;-84
2023/05/17 09:07:15;;;;;;;8.70;2.00;;;;;;;19.47;31.52;102563.47;4828802;29;20064;-84
2023/05/17 09:09:46;;;;;;;5.90;1.88;;;;;;;18.90;32.57;102562.03;4837654;29;20030;-84
2023/05/17 09:12:12;;;;;;;8.43;1.65;;;;;;;18.41;33.47;102564.16;4841508;29;20068;-84
2023/05/17 09:14:37;;;;;;;6.28;1.70;;;;;;;18.30;33.09;102564.75;4835573;29;20034;-81
2023/05/17 09:17:03;;;;;;;5.90;1.80;;;;;;;17.19;34.46;102556.53;4834931;29;20121;-84
2023/05/17 09:19:32;;;;;;;7.80;1.67;;;;;;;18.83;32.92;102568.56;4803908;29;20455;-83
2023/05/17 09:21:59;;;;;;;6.18;1.90;;;;;;;20.11;30.94;102569.94;4832429;29;20042;-82
2023/05/17 09:24:31;;;;;;;4.88;1.67;;;;;;;21.84;28.18;102567.72;4832695;29;20490;-81
2023/05/17 09:27:03;;;;;;;4.05;1.77;;;;;;;22.80;26.33;102566.91;4841289;29;20094;-82
2023/05/17 09:29:31;;;;;;;6.20;1.80;;;;;;;22.93;25.58;102565.03;4839730;29;20030;-82
2023/05/17 09:32:10;;;;;;;6.80;1.73;;;;;;;22.98;25.95;102573.38;4840805;29;20467;-82
2023/05/17 09:34:38;;;;;;;4.90;1.60;;;;;;;22.75;26.03;102575.06;4840241;29;20045;-83
2023/05/17 09:37:03;;;;;;;5.47;1.90;;;;;;;21.92;27.01;102566.56;4833682;29;20034;-83
2023/05/17 09:39:30;;;;;;;5.97;1.70;;;;;;;21.16;27.92;102573.13;4822940;29;20037;-83
2023/05/17 09:41:55;;;;;;;4.60;1.70;;;;;;;21.11;27.48;102572.94;4802393;29;20391;-83
2023/05/17 09:44:21;;;;;;;5.78;1.73;;;;;;;22.10;26.98;102561.03;4841323;29;20026;-82
2023/05/17 09:46:47;;;;;;;5.90;1.80;;;;;;;23.34;26.08;102571.47;4834436;29;20104;-82
2023/05/17 09:49:13;;;;;;;6.03;1.70;;;;;;;24.47;23.49;102572.81;4841153;29;20032;-82
2023/05/17 09:51:39;;;;;;;4.18;1.60;;;;;;;23.98;23.96;102567.00;4838899;29;20042;-83
2023/05/17 09:54:07;;;;;;;5.82;1.80;;;;;;;23.45;24.28;102567.88;4840760;29;20034;-83
2023/05/17 09:56:34;;;;;;;4.47;1.40;;;;;;;22.86;25.35;102567.88;4839583;29;20129;-82
2023/05/17 09:59:00;;;;;;;6.80;1.95;;;;;;;21.03;28.17;102562.31;4834852;29;20032;-82
2023/05/17 10:01:26;;;;;;;3.97;1.83;;;;;;;20.15;29.06;102564.84;4839893;29;20038;-83
2023/05/17 10:03:52;;;;;;;7.43;2.05;;;;;;;19.92;28.63;102560.75;4834306;29;20120;-81
2023/05/17 10:06:19;;;;;;;6.80;1.60;;;;;;;20.63;28.28;102566.22;4836727;29;20126;-84
2023/05/17 10:08:45;;;;;;;7.68;1.90;;;;;;;20.87;27.99;102571.91;4813447;29;20034;-82
2023/05/17 10:11:11;;;;;;;6.10;1.80;;;;;;;20.56;28.42;102570.88;4837680;29;20034;-82
2023/05/17 10:14:04;;;;;;;5.82;1.85;;;;;;;20.11;29.09;102575.41;4835398;29;20125;-82
2023/05/17 10:16:34;;;;;;;7.35;1.90;;;;;;;20.01;29.31;102569.56;4824438;29;20117;-82
2023/05/17 10:19:01;;;;;;;5.72;1.70;;;;;;;19.74;30.49;102571.53;4839360;29;20487;-82
2023/05/17 10:21:27;;;;;;;5.90;1.73;;;;;;;20.10;29.82;102570.13;4836266;29;20483;-81
2023/05/17 10:23:52;;;;;;;7.35;2.00;;;;;;;19.63;29.29;102559.38;4814105;29;20588;-82
2023/05/17 10:26:18;;;;;;;8.55;2.42;;;;;;;19.32;30.08;102575.47;4818955;29;20038;-82
2023/05/17 10:28:45;;;;;;;5.22;2.00;;;;;;;19.19;30.12;102576.34;4824195;29;20034;-81
2023/05/17 10:31:10;;;;;;;6.45;1.92;;;;;;;19.44;30.41;102575.63;4819435;29;20509;-82
2023/05/17 10:33:35;;;;;;;8.40;2.35;;;;;;;21.17;27.53;102563.00;4825239;29;20035;-82
2023/05/17 10:36:01;;;;;;;6.30;1.70;;;;;;;21.92;27.35;102566.56;4833763;29;20098;-82
2023/05/17 10:38:27;;;;;;;8.07;1.92;;;;;;;23.57;25.19;102583.50;4820438;29;20598;-82
2023/05/17 10:40:52;;;;;;;5.85;1.70;;;;;;;23.47;24.15;102570.38;4815136;29;20038;-83
2023/05/17 10:43:18;;;;;;;7.15;1.70;;;;;;;22.58;25.40;102569.41;4818294;29;20041;-83
2023/05/17 10:45:43;;;;;;;8.38;2.00;;;;;;;22.99;25.22;102575.03;4804906;29;20034;-83
2023/05/17 10:48:09;;;;;;;3.25;1.60;;;;;;;23.67;23.32;102564.44;4833834;29;20038;-82
2023/05/17 10:50:37;;;;;;;6.13;1.70;;;;;;;22.94;24.67;102553.78;4829660;29;20034;-82
2023/05/17 10:53:07;;;;;;;7.90;2.00;;;;;;;22.92;24.69;102560.63;4833010;29;20034;-83
2023/05/17 10:55:36;;;;;;;7.53;2.13;;;;;;;21.81;25.96;102549.81;4833274;29;20345;-82
2023/05/17 10:58:22;;;;;;;7.65;2.20;;;;;;;20.77;27.34;102545.06;4817531;29;20483;-83
2023/05/17 11:00:49;;;;;;;5.90;1.88;;;;;;;19.76;28.90;102548.44;4818346;29;20126;-83
2023/05/17 11:03:19;;;;;;;8.45;1.88;;;;;;;18.67;30.80;102558.91;4822128;29;20034;-82
2023/05/17 11:06:10;;;;;;;5.45;1.60;;;;;;;20.17;28.68;102557.28;4818354;29;20031;-82
2023/05/17 11:08:36;;;;;;;4.63;1.50;;;;;;;21.25;27.11;102543.53;4808782;29;20091;-82
2023/05/17 11:11:09;;;;;;;4.80;1.73;;;;;;;21.48;25.39;102536.53;4822625;29;20042;-83
2023/05/17 11:13:35;;;;;;;7.28;2.08;;;;;;;22.36;25.80;102541.66;4811428;29;20038;-82
2023/05/17 11:16:07;;;;;;;6.38;1.95;;;;;;;23.20;24.21;102542.53;4809526;29;20517;-83
2023/05/17 11:18:51;;;;;;;6.80;1.83;;;;;;;22.79;25.08;102550.69;4808157;29;20037;-82
2023/05/17 11:21:17;;;;;;;7.25;1.80;;;;;;;23.01;24.41;102539.94;4827100;29;20111;-82
2023/05/17 11:23:43;;;;;;;5.65;1.65;;;;;;;23.37;24.22;102543.50;4842291;29;20060;-82
2023/05/17 11:26:28;;;;;;;7.22;2.00;;;;;;;24.63;22.25;102535.38;4844433;29;20145;-82
2023/05/17 11:29:07;;;;;;;5.93;1.80;;;;;;;24.41;22.52;102534.44;4841862;29;20094;-83
2023/05/17 11:31:33;;;;;;;6.32;2.10;;;;;;;24.13;22.48;102533.44;4841886;29;20037;-83
2023/05/17 11:33:59;;;;;;;7.03;2.00;;;;;;;22.81;23.83;102541.13;4843088;29;20048;-83
2023/05/17 11:36:25;;;;;;;7.07;2.00;;;;;;;21.84;25.32;102537.56;4822322;29;20033;-83